Latest Weather Observations for Mount Lofty

IDS60801

Issued at 6:31 am CST Sunday 31 May 2015 (issued every 30 minutes, with the page automatically refreshed every 10 minutes)

About weather observations | Map of weather stations | Latest weather observations for SA | Other Formats
Station Details ID: 023842 Name: MOUNT LOFTY Lat: -34.98 Lon: 138.71 Height: 685.0 m
Data from the previous 72 hours. | See also: Recent months at Mount Lofty
Date/Time
CST
Temp
°C
App
Temp
°C
Dew
Point
Rel
Hum
%
Delta-T
°C
Wind Press
QNH
hPa
Press
MSL
hPa
Rain
since 9 am
mm
Dir
 
Spd
km/h
Gust
km/h
Spd
kts
Gust
kts
31/06:30am 8.3 5.0 8.2 99 0.0 W 15 28 8 15 - - 6.8
31/06:00am 8.2 4.9 8.1 99 0.0 W 15 30 8 16 - - 6.8
31/05:30am 8.4 5.2 8.3 99 0.0 WNW 15 30 8 16 - - 6.8
31/05:00am 8.3 5.0 8.2 99 0.0 WNW 15 35 8 19 - - 6.6
31/04:30am 8.1 4.4 8.0 99 0.0 WNW 17 32 9 17 - - 6.4
31/04:00am 8.0 4.7 7.9 99 0.0 W 15 26 8 14 - - 6.4
31/03:30am 7.9 4.2 7.8 99 0.0 WNW 17 37 9 20 - - 6.4
31/03:00am 8.1 5.2 8.0 99 0.0 W 13 26 7 14 - - 5.2
31/02:30am 8.0 4.3 7.9 99 0.0 WNW 17 33 9 18 - - 5.0
31/02:00am 8.3 5.0 8.2 99 0.0 WNW 15 30 8 16 - - 5.0
31/01:30am 8.5 4.9 8.4 99 0.1 W 17 32 9 17 - - 4.8
31/01:00am 8.5 4.9 8.4 99 0.1 WNW 17 33 9 18 - - 4.8
31/12:30am 8.4 4.8 8.3 99 0.0 WNW 17 35 9 19 - - 4.8
31/12:00am 8.3 5.0 8.2 99 0.0 WNW 15 32 8 17 - - 4.8
 
Date/Time
CST
Temp
°C
App
Temp
°C
Dew
Point
Rel
Hum
%
Delta-T
°C
Wind Press
QNH
hPa
Press
MSL
hPa
Rain
since 9 am
mm
Dir
 
Spd
km/h
Gust
km/h
Spd
kts
Gust
kts
30/11:30pm 8.3 5.8 8.2 99 0.0 W 11 20 6 11 - - 4.8
30/11:00pm 8.4 5.5 8.3 99 0.0 W 13 24 7 13 - - 4.8
30/10:30pm 8.3 5.4 8.2 99 0.0 W 13 28 7 15 - - 4.8
30/10:00pm 8.5 5.7 8.4 99 0.1 W 13 26 7 14 - - 4.8
30/09:30pm 8.5 5.3 8.4 99 0.1 W 15 32 8 17 - - 4.8
30/09:00pm 8.6 5.4 8.5 99 0.1 WNW 15 35 8 19 - - 4.8
30/08:30pm 8.4 5.9 8.3 99 0.0 W 11 24 6 13 - - 4.4
30/08:00pm 8.5 4.9 8.4 99 0.1 WNW 17 32 9 17 - - 3.6
30/07:30pm 8.6 5.4 8.5 99 0.1 WNW 15 32 8 17 - - 2.8
30/07:00pm 8.8 6.4 8.7 99 0.1 W 11 20 6 11 - - 2.8
30/06:30pm 8.6 6.2 8.5 99 0.1 WNW 11 26 6 14 - - 2.8
30/06:00pm 8.4 6.3 8.3 99 0.0 W 9 19 5 10 - - 2.8
30/05:30pm 8.1 5.6 8.0 99 0.0 WNW 11 20 6 11 - - 2.8
30/05:00pm 7.9 5.7 7.8 99 0.0 WNW 9 19 5 10 - - 2.6
30/04:30pm 8.1 5.6 8.0 99 0.0 WNW 11 22 6 12 - - 2.4
30/04:00pm 8.2 6.1 8.1 99 0.0 W 9 19 5 10 - - 2.4
30/03:30pm 8.2 6.1 8.1 99 0.0 W 9 15 5 8 - - 2.2
30/03:00pm 8.4 5.9 8.3 99 0.0 WNW 11 22 6 12 - - 1.0
30/02:30pm 8.5 5.7 8.4 99 0.1 WNW 13 24 7 13 - - 0.0
30/02:00pm 8.4 5.5 8.3 99 0.0 WNW 13 26 7 14 - - 0.0
30/01:30pm 8.6 5.0 8.5 99 0.1 WNW 17 30 9 16 - - 0.0
30/01:00pm 8.4 5.2 8.3 99 0.0 WNW 15 30 8 16 - - 0.0
30/12:30pm 8.4 5.5 8.3 99 0.0 WNW 13 24 7 13 - - 0.0
30/12:00pm 8.3 5.0 8.2 99 0.0 WNW 15 30 8 16 - - 0.0
30/11:30am 8.2 4.9 8.1 99 0.0 WNW 15 28 8 15 - - 0.0
30/11:00am 7.7 3.9 7.6 99 0.0 WNW 17 30 9 16 - - 0.0
30/10:30am 7.6 3.8 7.5 99 0.0 WNW 17 30 9 16 - - 0.0
30/10:00am 7.0 3.4 6.9 99 0.0 WNW 15 26 8 14 - - 0.0
30/09:30am 7.2 3.3 7.1 99 0.0 WNW 17 24 9 13 - - 0.0
30/09:00am 6.6 3.3 6.5 99 0.0 WNW 13 20 7 11 - - 0.6
30/08:30am 6.8 3.2 6.7 99 0.0 WNW 15 26 8 14 - - 0.6
30/08:00am 7.3 4.6 7.2 99 0.0 WNW 11 19 6 10 - - 0.6
30/07:30am 7.4 4.7 7.3 99 0.0 WNW 11 26 6 14 - - 0.6
30/07:00am 7.3 4.2 7.2 99 0.0 WNW 13 26 7 14 - - 0.6
30/06:30am 7.6 4.6 7.5 99 0.0 WNW 13 26 7 14 - - 0.6
30/06:00am 7.7 4.3 7.6 99 0.0 WNW 15 28 8 15 - - 0.6
30/05:30am 7.7 4.7 7.6 99 0.0 WNW 13 28 7 15 - - 0.6
30/05:00am 7.5 4.4 7.4 99 0.0 WNW 13 24 7 13 - - 0.4
30/04:30am 7.4 5.1 7.3 99 0.0 WNW 9 20 5 11 - - 0.4
30/04:00am 7.5 4.4 7.4 99 0.0 WNW 13 20 7 11 - - 0.4
30/03:30am 7.5 4.0 7.2 98 0.1 WNW 15 24 8 13 - - 0.4
30/03:00am 7.4 4.3 7.1 98 0.1 WNW 13 20 7 11 - - 0.4
30/02:30am 7.5 4.8 7.2 98 0.1 WNW 11 24 6 13 - - 0.4
30/02:00am 7.6 4.5 7.3 98 0.1 WNW 13 24 7 13 - - 0.4
30/01:30am 7.7 4.6 7.4 98 0.1 WNW 13 26 7 14 - - 0.4
30/01:00am 7.6 4.5 7.3 98 0.1 WNW 13 22 7 12 - - 0.4
30/12:30am 7.5 4.8 7.2 98 0.1 WNW 11 17 6 9 - - 0.4
30/12:00am 7.4 5.0 7.1 98 0.1 WNW 9 19 5 10 - - 0.4
 
Date/Time
CST
Temp
°C
App
Temp
°C
Dew
Point
Rel
Hum
%
Delta-T
°C
Wind Press
QNH
hPa
Press
MSL
hPa
Rain
since 9 am
mm
Dir
 
Spd
km/h
Gust
km/h
Spd
kts
Gust
kts
29/11:30pm 7.2 4.8 6.9 98 0.1 WNW 9 13 5 7 - - 0.4
29/11:00pm 7.1 4.7 6.8 98 0.1 WNW 9 13 5 7 - - 0.4
29/10:30pm 7.0 5.1 6.7 98 0.1 WNW 6 9 3 5 - - 0.4
29/10:00pm 7.2 5.3 6.9 98 0.1 WNW 6 11 3 6 - - 0.4
29/09:30pm 7.3 5.5 7.0 98 0.1 WNW 6 9 3 5 - - 0.4
29/09:00pm 7.3 5.5 7.0 98 0.1 WNW 6 11 3 6 - - 0.4
29/08:30pm 7.5 5.5 7.2 98 0.1 WNW 7 13 4 7 - - 0.4
29/08:00pm 7.8 6.5 7.5 98 0.1 W 4 9 2 5 - - 0.4
29/07:30pm 7.7 6.3 7.3 97 0.2 W 4 9 2 5 - - 0.4
29/07:00pm 7.8 6.1 7.4 97 0.2 WNW 6 9 3 5 - - 0.4
29/06:30pm 7.8 6.1 7.4 97 0.2 WNW 6 9 3 5 - - 0.4
29/06:00pm 8.0 6.3 7.4 96 0.3 WNW 6 9 3 5 - - 0.4
29/05:30pm 8.1 6.3 7.2 94 0.4 W 6 13 3 7 - - 0.4
29/05:00pm 8.1 6.2 6.9 92 0.6 WNW 6 9 3 5 - - 0.4
29/04:30pm 8.4 6.4 6.4 87 1.0 W 6 11 3 6 - - 0.4
29/04:00pm 9.7 7.5 6.2 79 1.7 W 7 13 4 7 - - 0.4
29/03:30pm 10.2 8.3 6.9 80 1.6 W 6 13 3 7 - - 0.4
29/03:00pm 9.4 7.6 7.3 87 1.0 W 6 11 3 6 - - 0.4
29/02:30pm 9.1 7.0 6.7 85 1.2 W 7 15 4 8 - - 0.4
29/02:00pm 8.8 6.9 6.9 88 0.9 W 6 11 3 6 - - 0.4
29/01:30pm 8.8 6.6 6.3 84 1.2 WNW 7 17 4 9 - - 0.4
29/01:00pm 9.5 6.9 6.0 79 1.7 W 9 15 5 8 - - 0.4
29/12:30pm 8.6 6.7 6.7 88 0.9 W 6 9 3 5 - - 0.4
29/12:00pm 9.4 7.3 6.5 82 1.4 WNW 7 17 4 9 - - 0.4
29/11:30am 8.7 6.5 6.0 83 1.3 W 7 17 4 9 - - 0.4
29/11:00am 8.7 7.2 8.3 97 0.2 W 6 13 3 7 - - 0.4
29/10:30am 7.8 6.4 7.4 97 0.2 W 4 7 2 4 - - 0.4
29/10:00am 7.4 5.5 6.8 96 0.3 W 6 11 3 6 - - 0.4
29/09:30am 7.5 5.6 6.6 94 0.4 W 6 11 3 6 - - 0.0
29/09:00am 8.1 6.2 6.7 91 0.7 WNW 6 11 3 6 - - 5.0
29/08:30am 7.4 5.8 6.5 94 0.4 W 4 6 2 3 - - 5.0
29/08:00am 7.2 5.6 6.5 95 0.3 W 4 7 2 4 - - 5.0
29/07:30am 7.0 5.4 6.4 96 0.3 W 4 9 2 5 - - 5.0
29/07:00am 7.1 5.2 6.7 97 0.2 W 6 9 3 5 - - 5.0
29/06:30am 6.8 4.8 6.4 97 0.2 W 6 9 3 5 - - 5.0
29/06:00am 6.7 4.5 6.3 97 0.2 W 7 11 4 6 - - 5.0
29/05:30am 7.2 4.8 6.8 97 0.2 W 9 15 5 8 - - 5.0
29/05:00am 7.5 5.1 7.1 97 0.2 W 9 15 5 8 - - 5.0
29/04:30am 7.4 5.4 7.1 98 0.1 W 7 13 4 7 - - 5.0
29/04:00am 7.2 5.2 6.9 98 0.1 W 7 13 4 7 - - 5.0
29/03:30am 7.0 5.1 6.7 98 0.1 W 6 13 3 7 - - 5.0
29/03:00am 7.1 5.2 6.8 98 0.1 W 6 13 3 7 - - 5.0
29/02:30am 7.0 4.9 6.7 98 0.1 W 7 13 4 7 - - 5.0
29/02:00am 7.2 5.2 6.9 98 0.1 W 7 15 4 8 - - 5.0
29/01:30am 7.4 5.1 7.3 99 0.0 W 9 19 5 10 - - 5.0
29/01:00am 7.7 5.4 7.6 99 0.0 W 9 17 5 9 - - 5.0
29/12:30am 7.8 5.6 7.7 99 0.0 W 9 24 5 13 - - 5.0
29/12:00am 8.3 6.2 8.2 99 0.0 W 9 20 5 11 - - 5.0
 
Date/Time
CST
Temp
°C
App
Temp
°C
Dew
Point
Rel
Hum
%
Delta-T
°C
Wind Press
QNH
hPa
Press
MSL
hPa
Rain
since 9 am
mm
Dir
 
Spd
km/h
Gust
km/h
Spd
kts
Gust
kts
28/11:30pm 8.6 6.2 8.5 99 0.1 W 11 19 6 10 - - 5.0
28/11:00pm 8.9 6.5 8.8 99 0.1 W 11 19 6 10 - - 5.0
28/10:30pm 9.0 6.7 8.9 99 0.1 W 11 17 6 9 - - 5.0
28/10:00pm 9.2 7.3 9.1 99 0.1 W 9 20 5 11 - - 5.0
28/09:30pm 9.1 6.4 9.0 99 0.1 W 13 22 7 12 - - 5.0
28/09:00pm 9.1 6.4 8.8 98 0.2 W 13 22 7 12 - - 4.6
28/08:30pm 9.2 6.9 8.9 98 0.2 W 11 22 6 12 - - 4.4
28/08:00pm 9.4 7.1 9.1 98 0.2 W 11 30 6 16 - - 3.8
28/07:30pm 9.4 7.1 9.1 98 0.2 W 11 22 6 12 - - 3.8
28/07:00pm 9.3 7.4 9.0 98 0.2 W 9 19 5 10 - - 3.6
28/06:30pm 9.1 6.4 8.8 98 0.2 W 13 22 7 12 - - 3.6
28/06:00pm 9.1 6.4 8.8 98 0.2 W 13 24 7 13 - - 3.4
28/05:30pm 9.2 6.1 8.9 98 0.2 W 15 35 8 19 - - 2.4
28/05:00pm 9.8 6.8 9.3 97 0.3 W 15 26 8 14 - - 0.8
28/04:30pm 10.6 6.8 9.0 90 0.8 WNW 19 35 10 19 - - 0.0
28/04:00pm 10.8 7.4 9.1 89 0.9 WNW 17 37 9 20 - - 0.0
28/03:30pm 11.2 7.4 8.9 86 1.2 WNW 19 35 10 19 - - 0.0
28/03:00pm 11.0 7.3 9.4 90 0.8 W 19 32 10 17 - - 0.0
28/02:30pm 11.4 7.7 9.5 88 1.0 WNW 19 41 10 22 - - 0.0
28/02:00pm 11.3 7.5 9.7 90 0.8 WNW 20 35 11 19 - - 0.0
28/01:30pm 11.1 6.1 9.7 91 0.7 WNW 26 48 14 26 - - 0.0
28/01:00pm 10.9 6.4 10.1 95 0.4 WNW 24 43 13 23 - - 0.0
28/12:30pm 10.5 6.8 10.2 98 0.2 WNW 20 39 11 21 - - 0.0
28/12:00pm 10.0 5.4 9.7 98 0.2 WNW 24 39 13 21 - - 0.0
28/11:30am 9.4 5.4 9.1 98 0.2 WNW 20 35 11 19 - - 0.0
28/11:00am 9.3 5.3 9.0 98 0.2 WNW 20 32 11 17 - - 0.0
28/10:30am 9.3 5.3 9.0 98 0.2 WNW 20 32 11 17 - - 0.0
28/10:00am 9.2 5.2 8.9 98 0.2 WNW 20 32 11 17 - - 0.0
28/09:30am 9.1 5.2 8.8 98 0.2 WNW 19 30 10 16 - - 0.0
28/09:00am 9.0 5.1 8.7 98 0.2 WNW 19 32 10 17 - - 0.0
28/08:30am 9.2 5.4 8.9 98 0.2 WNW 19 35 10 19 - - 0.0
28/08:00am 9.1 6.0 8.8 98 0.2 WNW 15 28 8 15 - - 0.0
28/07:30am 9.1 6.0 8.8 98 0.2 WNW 15 32 8 17 - - 0.0
28/07:00am 9.3 6.2 9.0 98 0.2 WNW 15 28 8 15 - - 0.0

Other Formats:

Comma delimited format used in spreadsheet applications
http://www.bom.gov.au/fwo/IDS60801/IDS60801.95678.axf

JavaScript Object Notation format (JSON) in row-major order
http://www.bom.gov.au/fwo/IDS60801/IDS60801.95678.json